Terminal Aerodrome Forecast
Issued by NWS

Home | Current Version | Previous Version | Text Only | Print | Product List | Glossary On
Versions: 1 2 3 4 5 6 7 8 9 10 11 12 13
000
FTPA31 PHFO 221720
TAFHJR
TAF
PHJR 221720Z 2218/2318 06005KT P6SM FEW045
     FM222000 07010G18KT P6SM SCT045
     FM230500 06007KT P6SM VCSH FEW030 SCT050=

USA.gov is the U.S. government's official web portal to all federal, state and local government web resources and services.